Tiempo atmosférico en la estación meteorológica de Ballobar, Huesca (178 m.)



Fecha
DESCASC
Temp. máxima en grados centígrados (hora)
DESCASC
Temp. mínima en grados centígrados (hora)
DESCASC
Temp. media en grados centígrados
DESCASC
Racha de viento máxima en m/sg (hora)
DESCASC
Velocidad máxima media en intervalos de 10 minutos(hora)
DESCASC
Precipitaciones diarias en mm
DESCASC
Precipitaciones de 00:00 a 06:00 en mm
DESCASC
Precipitaciones de 06:00 a 12:00 en mm
DESCASC
Precipitaciones de 12:00 a 18:00 en mm
DESCASC
Precipitaciones de 18:00 a 24:00 en mm
DESCASC
14-12-2019 16.8 (13:20) 8.6 (23:59) 12.7 13.61 (08:30) 10.56 (08:30) 0 0 0 0 0
13-12-2019 18.7 (14:20) 6.9 (03:00) 12.8 22.78 (15:00) 15.28 (13:30) 0.6 0.4 0.2 0 0
12-12-2019 12.6 (13:40) 7.4 (03:00) 10 12.5 (04:50) 9.44 (02:50) 2 0 0 0.8 1.2
11-12-2019 12.7 (15:20) 0.7 (00:00) 6.7 18.89 (15:30) 12.22 (15:50) 0 0 0 0 0
10-12-2019 15 (15:40) 3.5 (00:00) 9.3 16.67 (00:50) 10.56 (02:20) 0 0 0 0 0
09-12-2019 14.1 (13:40) 2.5 (00:00) 8.3 23.33 (16:40) 13.61 (16:20) 0 0 0 0 0
08-12-2019 7.3 (21:30) 5 (00:00) 6.2 3.89 (23:00) 2.78 (22:30) 0.4 0 0 0 0.4
07-12-2019 6.6 (16:10) 2.2 (00:00) 4.4 3.89 (04:50) 2.22 (18:20) 0 0 0 0 0
06-12-2019 14.6 (16:30) 5.1 (00:00) 9.9 4.72 (18:50) 3.61 (19:00) 0 0 0 0 0
05-12-2019 12.1 (15:50) 7.7 (00:00) 9.9 9.72 (03:30) 4.72 (03:30) 5.8 3.6 1.8 0.2 0.2
04-12-2019 8.9 (15:40) 3.2 (00:00) 6 6.11 (14:30) 3.89 (19:00) 7 0 0.8 4.6 1.6
03-12-2019 8.2 (15:40) 0.4 (00:00) 4.3 5.28 (04:30) 4.17 (04:30) 0 0 0 0 0
02-12-2019 13.8 (15:50) 1.7 (00:00) 7.8 4.72 (11:40) 3.61 (11:30) 0 0 0 0 0
01-12-2019 14.6 (16:00) 4.1 (00:00) 9.4 4.72 (01:40) 3.61 (05:00) 1.2 1 0 0.2 0
30-11-2019 15.1 (15:40) 3.7 (00:00) 9.4 10.56 (21:40) 5.56 (21:50) 0 0 0 0 0
29-11-2019 19 (13:50) 7.8 (00:00) 13.4 12.22 (13:00) 7.78 (11:30) 0 0 0 0 0
28-11-2019 18.8 (13:30) 6.7 (00:00) 12.7 13.89 (22:00) 10 (22:00) 0 0 0 0 0
27-11-2019 17.7 (14:50) 6.4 (00:00) 12.1 11.94 (12:20) 6.94 (12:10) 0 0 0 0 0
26-11-2019 14.8 (15:30) 3.7 (00:00) 9.3 3.61 (14:50) 2.78 (10:30) 0.2 0 0 0 0.2
25-11-2019 18.7 (15:20) 5.9 (00:00) 12.3 9.17 (14:30) 6.11 (15:20) 0.2 0.2 0 0 0
24-11-2019 14.3 (14:10) 6.2 (00:00) 10.3 18.33 (06:30) 11.11 (07:50) 0 0 0 0 0
23-11-2019 12.7 (13:30) 7.3 (00:00) 10 21.94 (19:30) 13.89 (19:30) 0.6 0.2 0.4 0 0
22-11-2019 12.8 (23:10) 3 (00:00) 7.9 12.5 (23:10) 6.39 (20:40) 2.6 0 0 1.4 1.2
21-11-2019 12.9 (14:30) 2.8 (00:00) 7.8 4.72 (15:20) 3.33 (15:20) 0 0 0 0 0
20-11-2019 10.8 (15:30) -1.3 (-00:0) 4.8 3.61 (15:00) 2.5 (10:20) 0 0 0 0 0
19-11-2019 11.6 (16:10) -2.1 (-00:0) 4.8 5.56 (00:40) 3.89 (00:40) 0 0 0 0 0
18-11-2019 13.1 (14:00) 3 (00:00) 8.1 11.39 (16:40) 7.22 (16:40) 0 0 0 0 0
17-11-2019 13 (13:50) 4.7 (00:00) 8.8 10.28 (07:00) 8.33 (07:00) 0 0 0 0 0
16-11-2019 9.1 (15:20) -0.9 (-00:0) 4.1 7.5 (16:00) 4.72 (16:00) 0 0 0 0 0
15-11-2019 9.9 (16:30) 0.5 (00:00) 5.2 8.89 (21:00) 6.11 (19:20) 0 0 0 0 0

Gráficas

Temp. máximas Temp. mínimas Temp. medias Precipitaciones Rachas de viento máximas Velocidades máximas media en intervalos de 10 minutos

Datos horarios

Fecha y hora oficial Temperatura (ºC) Velocidad del viento (km/h) Dirección del viento Racha (km/h) Dirección de racha Precipitación (mm) Presión (hPa) Tendencia (hPa) Humedad (%)
2019-12-14 23:00:00 9.7 14 Sudoeste 18 Sudoeste 0 -- -- 72
2019-12-14 22:00:00 10.5 14 Sudoeste 21 Sudoeste 0 -- -- 70
2019-12-14 21:00:00 10.6 15 Sudoeste 20 Oeste 0 -- -- 70
2019-12-14 20:00:00 10.7 14 Sudoeste 25 Sudoeste 0 -- -- 69
2019-12-14 19:00:00 12.1 16 Sudoeste 21 Sudoeste 0 -- -- 64
2019-12-14 18:00:00 13.4 17 Sudoeste 24 Sudoeste 0 -- -- 63
2019-12-14 17:00:00 15.3 9 Sudoeste 30 Sudoeste 0 -- -- 59
2019-12-14 16:00:00 16.1 26 Sudoeste 35 Sudoeste 0 -- -- 54
2019-12-14 15:00:00 16.8 19 Oeste 29 Sudoeste 0 -- -- 52
2019-12-14 14:00:00 16.3 19 Oeste 33 Oeste 0 -- -- 53
2019-12-14 13:00:00 16.6 17 Sudoeste 35 Oeste 0 -- -- 53
2019-12-14 12:00:00 16 18 Oeste 38 Oeste 0 -- -- 54
2019-12-14 11:00:00 14.5 22 Oeste 36 Sudoeste 0 -- -- 59
2019-12-14 10:00:00 12.9 18 Sudoeste 43 Oeste 0 -- -- 65
2019-12-14 09:00:00 12.1 27 Sudoeste 49 Sudoeste 0 -- -- 66
2019-12-14 08:00:00 12.8 31 Sudoeste 47 Oeste 0 -- -- 63
2019-12-14 07:00:00 13.8 22 Oeste 40 Oeste 0 -- -- 61
2019-12-14 06:00:00 13.9 27 Oeste 48 Oeste 0 -- -- 61
2019-12-14 05:00:00 13.5 24 Oeste 38 Sudoeste 0 -- -- 65
2019-12-14 04:00:00 14.1 25 Oeste 43 Sudoeste 0 -- -- 64
2019-12-14 03:00:00 14.5 23 Oeste 45 Oeste 0 -- -- 65
2019-12-14 02:00:00 15.2 28 Sudoeste 43 Sudoeste 0 -- -- 64
2019-12-14 01:00:00 15.3 27 Oeste 46 Sudoeste 0 -- -- 67
2019-12-14 00:00:00 15.2 21 Oeste 44 Oeste 0 -- -- 69
2019-12-13 23:00:00 15.3 25 Oeste 48 Oeste 0 -- -- 69
2019-12-13 22:00:00 15.9 31 Oeste 52 Oeste 0 -- -- 68
2019-12-13 21:00:00 16.1 29 Oeste 60 Oeste 0 -- -- 70
2019-12-13 20:00:00 16.3 33 Oeste 62 Oeste 0 -- -- 70
2019-12-13 19:00:00 16.1 33 Oeste 56 Oeste 0 -- -- 70
2019-12-13 18:00:00 16.1 31 Oeste 53 Oeste 0 -- -- 68
2019-12-13 17:00:00 16.7 39 Oeste 60 Oeste 0 -- -- 65
2019-12-13 16:00:00 17.6 38 Oeste 78 Oeste 0 -- -- 62
2019-12-13 15:00:00 18.3 50 Oeste 82 Oeste 0 -- -- 59
2019-12-13 14:00:00 18.6 49 Oeste 78 Oeste 0 -- -- 58
2019-12-13 13:00:00 18 45 Oeste 75 Oeste 0 -- -- 62
2019-12-13 12:00:00 17.3 45 Oeste 76 Noroeste 0 -- -- 66
2019-12-13 11:00:00 16.4 33 Oeste 66 Oeste 0 -- -- 70
2019-12-13 10:00:00 14.9 32 Oeste 59 Oeste 0 -- -- 76
2019-12-13 09:00:00 14.5 21 Oeste 34 Oeste 0 -- -- 78
2019-12-13 08:00:00 12.7 15 Oeste 22 Oeste 0 -- -- 86
2019-12-13 07:00:00 10.1 6 Oeste 12 Sudoeste 0.2 -- -- 95
2019-12-13 06:00:00 9 0 Calma 19 Sudoeste 0 -- -- 94
2019-12-13 05:00:00 8.9 13 Sudoeste 18 Sudoeste 0 -- -- 97
2019-12-13 04:00:00 7 3 Oeste 7 Oeste 0 -- -- 97
2019-12-13 03:00:00 6.9 2 Noroeste 6 Oeste 0.2 -- -- 96
2019-12-13 02:00:00 7.1 4 Oeste 9 Oeste 0.2 -- -- 96
2019-12-13 01:00:00 7.1 4 Oeste 9 Sudoeste 0 -- -- 95
2019-12-13 00:00:00 7.6 7 Sudoeste 9 Sudoeste 0.2 -- -- 94
2019-12-12 23:00:00 7.9 3 Nordeste 12 Oeste 0 -- -- 94
2019-12-12 22:00:00 8.2 7 Oeste 17 Sudoeste 0 -- -- 92
2019-12-12 21:00:00 8.1 11 Sudoeste 15 Sudoeste 0 -- -- 93
2019-12-12 20:00:00 8.1 7 Sudoeste 9 Sudoeste 0.4 -- -- 92
2019-12-12 19:00:00 8.3 6 Sudoeste 19 Oeste 0.6 -- -- 91
2019-12-12 18:00:00 9 13 Sudoeste 30 Oeste 0.8 -- -- 86
2019-12-12 17:00:00 10 22 Oeste 39 Sudoeste 0 -- -- 79
2019-12-12 16:00:00 11.9 22 Oeste 37 Oeste 0 -- -- 63
2019-12-12 15:00:00 12.1 18 Oeste 39 Oeste 0 -- -- 61
2019-12-12 14:00:00 12.5 24 Oeste 42 Oeste 0 -- -- 58
2019-12-12 13:00:00 12.4 19 Oeste 35 Oeste 0 -- -- 60
2019-12-12 12:00:00 11.8 19 Oeste 44 Sudoeste 0 -- -- 58
2019-12-12 11:00:00 11 24 Oeste 35 Oeste 0 -- -- 60
2019-12-12 10:00:00 10.1 20 Oeste 34 Sudoeste 0 -- -- 64
2019-12-12 09:00:00 8 22 Sudoeste 34 Sudoeste 0 -- -- 70
2019-12-12 08:00:00 8.4 25 Oeste 40 Sudoeste 0 -- -- 68
2019-12-12 07:00:00 9.3 21 Oeste 42 Oeste 0 -- -- 65
2019-12-12 06:00:00 7.7 16 Sudoeste 33 Oeste 0 -- -- 70
2019-12-12 05:00:00 7.9 32 Sudoeste 45 Sudoeste 0 -- -- 68
2019-12-12 04:00:00 7.9 20 Sudoeste 39 Oeste 0 -- -- 68
2019-12-12 03:00:00 7.4 30 Sudoeste 44 Sudoeste 0 -- -- 70
2019-12-12 02:00:00 9.4 25 Oeste 40 Oeste 0 -- -- 65
2019-12-12 01:00:00 9.1 21 Oeste 33 Oeste 0 -- -- 65
2019-12-12 00:00:00 9.2 21 Oeste 43 Oeste 0 -- -- 64
2019-12-11 23:00:00 8.1 21 Sudoeste 40 Sudoeste 0 -- -- 69
2019-12-11 22:00:00 8.7 20 Sudoeste 31 Oeste 0 -- -- 65
2019-12-11 21:00:00 8.9 15 Oeste 36 Noroeste 0 -- -- 62
2019-12-11 20:00:00 9.2 15 Oeste 50 Oeste 0 -- -- 62
2019-12-11 19:00:00 10.1 37 Oeste 68 Oeste 0 -- -- 59
2019-12-11 18:00:00 10.2 39 Oeste 62 Oeste 0 -- -- 59
2019-12-11 17:00:00 11.4 41 Oeste 64 Oeste 0 -- -- 57
2019-12-11 16:00:00 12.4 40 Oeste 68 Oeste 0 -- -- 62
2019-12-11 15:00:00 12.1 31 Oeste 51 Oeste 0 -- -- 67
2019-12-11 14:00:00 11.4 14 Oeste 28 Oeste 0 -- -- 73
2019-12-11 13:00:00 9.8 3 Nordeste 17 Oeste 0 -- -- 79
2019-12-11 12:00:00 8.3 4 Este 9 Nordeste 0 -- -- 84
2019-12-11 11:00:00 5.6 0 Calma 9 Nordeste 0 -- -- 94
2019-12-11 10:00:00 3.2 3 Sudoeste 6 Noroeste 0 -- -- 96
2019-12-11 09:00:00 1.4 4 Oeste 9 Oeste 0 -- -- 97
2019-12-11 08:00:00 1 0 Calma 7 Noroeste 0 -- -- 96
2019-12-11 07:00:00 1.5 3 Noroeste 7 Noroeste 0 -- -- 95
2019-12-11 06:00:00 1.9 2 Oeste 5 Nordeste 0 -- -- 95
2019-12-11 05:00:00 2.7 2 Sudoeste 7 Oeste 0 -- -- 95
2019-12-11 04:00:00 2.7 0 Calma 9 Oeste 0 -- -- 95
2019-12-11 03:00:00 2.9 5 Noroeste 7 Noroeste 0 -- -- 95
2019-12-11 02:00:00 3.1 3 Noroeste 5 Noroeste 0 -- -- 94
2019-12-11 01:00:00 3.6 3 Norte 10 Oeste 0 -- -- 93
2019-12-11 00:00:00 3.7 4 Oeste 9 Oeste 0 -- -- 93
2019-12-10 23:00:00 4 5 Oeste 9 Oeste 0 -- -- 90
2019-12-10 22:00:00 5.3 6 Oeste 9 Oeste 0 -- -- 88
2019-12-10 21:00:00 5.9 3 Noroeste 6 Noroeste 0 -- -- 88
2019-12-10 20:00:00 6.6 5 Oeste 9 Sur 0 -- -- 87
2019-12-10 19:00:00 7.7 5 Oeste 7 Oeste 0 -- -- 82
2019-12-10 18:00:00 9.7 0 Calma 9 Nordeste 0 -- -- 76
2019-12-10 17:00:00 12.7 9 Nordeste 11 Nordeste 0 -- -- 65
2019-12-10 16:00:00 14.4 4 Nordeste 14 Sudoeste 0 -- -- 55
2019-12-10 15:00:00 14.3 8 Sur 15 Sur 0 -- -- 56
2019-12-10 14:00:00 13.4 8 Sur 20 Noroeste 0 -- -- 58
2019-12-10 13:00:00 12.5 12 Oeste 35 Oeste 0 -- -- 56
2019-12-10 12:00:00 11.9 17 Oeste 27 Oeste 0 -- -- 60
2019-12-10 11:00:00 11.4 16 Oeste 28 Oeste 0 -- -- 64
2019-12-10 10:00:00 9.8 11 Oeste 27 Oeste 0 -- -- 70
2019-12-10 09:00:00 8.5 11 Sudoeste 33 Oeste 0 -- -- 74
2019-12-10 08:00:00 8.4 18 Oeste 38 Oeste 0 -- -- 73
2019-12-10 07:00:00 9.1 22 Noroeste 41 Oeste 0 -- -- 69
2019-12-10 06:00:00 9.3 24 Oeste 45 Noroeste 0 -- -- 69
2019-12-10 05:00:00 9.6 30 Oeste 52 Oeste 0 -- -- 66
2019-12-10 04:00:00 9.7 33 Oeste 46 Oeste 0 -- -- 66
2019-12-10 03:00:00 9.7 26 Oeste 54 Oeste 0 -- -- 68
2019-12-10 02:00:00 10.2 35 Oeste 56 Oeste 0 -- -- 67
2019-12-10 01:00:00 10.4 32 Oeste 60 Oeste 0 -- -- 65
2019-12-10 00:00:00 10.4 26 Oeste 50 Oeste 0 -- -- 67
2019-12-09 23:00:00 10.6 24 Oeste 55 Oeste 0 -- -- 66
2019-12-09 22:00:00 10.8 33 Oeste 55 Oeste 0 -- -- 65
2019-12-09 21:00:00 11 32 Oeste 54 Oeste 0 -- -- 62
2019-12-09 20:00:00 10.9 28 Oeste 58 Oeste 0 -- -- 63
2019-12-09 19:00:00 11.6 36 Oeste 60 Oeste 0 -- -- 61
2019-12-09 18:00:00 12 33 Oeste 61 Oeste 0 -- -- 57
2019-12-09 17:00:00 12.9 41 Oeste 84 Oeste 0 -- -- 54
2019-12-09 16:00:00 13.2 49 Oeste 71 Oeste 0 -- -- 60
2019-12-09 15:00:00 14 42 Oeste 71 Oeste 0 -- -- 59
2019-12-09 14:00:00 14 44 Oeste 77 Oeste 0 -- -- 59
2019-12-09 13:00:00 13.7 39 Oeste 75 Oeste 0 -- -- 60
2019-12-09 12:00:00 13.1 30 Oeste 64 Oeste 0 -- -- 61
2019-12-09 11:00:00 12.6 36 Oeste 57 Oeste 0 -- -- 61
2019-12-09 10:00:00 11.5 27 Oeste 45 Oeste 0 -- -- 63
2019-12-09 09:00:00 10.1 14 Oeste 37 Oeste 0 -- -- 68
2019-12-09 08:00:00 9 21 Oeste 34 Sudoeste 0 -- -- 72
2019-12-09 07:00:00 7.9 19 Sudoeste 28 Sudoeste 0 -- -- 81
2019-12-09 06:00:00 8.2 18 Oeste 26 Oeste 0 -- -- 79
2019-12-09 05:00:00 2.7 5 Oeste 8 Oeste 0 -- -- 99
2019-12-09 04:00:00 2.6 5 Noroeste 10 Nordeste 0 -- -- 99
2019-12-09 03:00:00 3.5 2 Noroeste 8 Oeste 0 -- -- 98
2019-12-09 02:00:00 4.1 7 Oeste 11 Oeste 0 -- -- 98
2019-12-09 01:00:00 5.6 8 Oeste 13 Oeste 0 -- -- 98
2019-12-09 00:00:00 6.6 2 Sudoeste 13 Nordeste 0 -- -- 97
2019-12-08 23:00:00 7.1 9 Nordeste 14 Nordeste 0 -- -- 98
2019-12-08 22:00:00 7.2 5 Nordeste 9 Nordeste 0 -- -- 98
2019-12-08 21:00:00 7.2 8 Nordeste 12 Nordeste 0 -- -- 97
2019-12-08 20:00:00 7.1 5 Nordeste 12 Este 0.2 -- -- 97
2019-12-08 19:00:00 7 2 Este 8 Este 0.2 -- -- 96
2019-12-08 18:00:00 6.9 5 Este 10 Este 0 -- -- 95
2019-12-08 17:00:00 7.1 6 Este 10 Este 0 -- -- 94
2019-12-08 16:00:00 7 6 Este 10 Nordeste 0 -- -- 94
2019-12-08 15:00:00 7 7 Nordeste 10 Nordeste 0 -- -- 95
2019-12-08 14:00:00 6.5 3 Este 8 Sudoeste 0 -- -- 97
2019-12-08 13:00:00 6 0 Calma 11 Sur 0 -- -- 98
2019-12-08 12:00:00 5.8 7 Sur 12 Sudoeste 0 -- -- 98
2019-12-08 11:00:00 5.9 3 Sudoeste 10 Sudoeste 0 -- -- 99
2019-12-08 10:00:00 5.6 6 Sudoeste 9 Sudoeste 0 -- -- 99
2019-12-08 09:00:00 5.2 3 Sudoeste 8 Sur 0 -- -- 99
2019-12-08 08:00:00 5 7 Sudoeste 12 Oeste 0 -- -- 99
2019-12-08 07:00:00 5 5 Sudoeste 14 Oeste 0 -- -- 99
2019-12-08 06:00:00 5.5 8 Oeste 12 Oeste 0 -- -- 99
2019-12-08 05:00:00 5.9 6 Oeste 10 Noroeste 0 -- -- 99
2019-12-08 04:00:00 6.3 4 Sudoeste 7 Oeste 0 -- -- 99
2019-12-08 03:00:00 6.5 2 Oeste 5 Sudoeste 0 -- -- 99
2019-12-08 02:00:00 6.6 3 Sur 6 Sudeste 0 -- -- 99
2019-12-08 01:00:00 6.6 4 Sudoeste 5 Sudoeste 0 -- -- 99
2019-12-08 00:00:00 6.6 3 Sudoeste 6 Norte 0 -- -- 99
2019-12-07 23:00:00 6.5 4 Nordeste 6 Nordeste 0 -- -- 99
2019-12-07 22:00:00 6.4 0 Calma 5 Este 0 -- -- 99
2019-12-07 21:00:00 6.3 2 Sudoeste 5 Nordeste 0 -- -- 99
2019-12-07 20:00:00 6.3 4 Este 8 Este 0 -- -- 99
2019-12-07 19:00:00 6.1 4 Nordeste 12 Este 0 -- -- 98
2019-12-07 18:00:00 6.1 5 Este 9 Nordeste 0 -- -- 98
2019-12-07 17:00:00 6.4 2 Oeste 7 Oeste 0 -- -- 98
2019-12-07 16:00:00 6.5 2 Oeste 6 Sudeste 0 -- -- 98
2019-12-07 15:00:00 6.4 2 Sur 9 Nordeste 0 -- -- 99
2019-12-07 14:00:00 6.1 3 Nordeste 6 Nordeste 0 -- -- 99
2019-12-07 13:00:00 5.7 3 Nordeste 6 Nordeste 0 -- -- 99
2019-12-07 12:00:00 5.2 3 Sur 7 Nordeste 0 -- -- 99
2019-12-07 11:00:00 4.6 0 Calma 5 Sur 0 -- -- 99
2019-12-07 10:00:00 3.8 4 Sur 7 Sur 0 -- -- 99
2019-12-07 09:00:00 2.7 2 Este 9 Norte 0 -- -- 99
2019-12-07 08:00:00 2.6 4 Oeste 8 Oeste 0 -- -- 98
2019-12-07 07:00:00 2.4 6 Oeste 10 Oeste 0 -- -- 99
2019-12-07 06:00:00 3.4 5 Oeste 9 Noroeste 0 -- -- 98
2019-12-07 05:00:00 3.6 7 Oeste 14 Oeste 0 -- -- 98
2019-12-07 04:00:00 3.7 2 Nordeste 8 Oeste 0 -- -- 97
2019-12-07 03:00:00 4.3 5 Oeste 8 Oeste 0 -- -- 98
2019-12-07 02:00:00 4.4 0 Calma 6 Nordeste 0 -- -- 97
2019-12-07 01:00:00 4.8 0 Calma 8 Noroeste 0 -- -- 96
2019-12-07 00:00:00 5.1 3 Oeste 8 Oeste 0 -- -- 96
2019-12-06 23:00:00 6 0 Calma 7 Oeste 0 -- -- 95
2019-12-06 22:00:00 6.7 5 Noroeste 8 Noroeste 0 -- -- 94
2019-12-06 21:00:00 7.9 4 Oeste 14 Oeste 0 -- -- 91
2019-12-06 20:00:00 9.8 11 Sudoeste 16 Sudoeste 0 -- -- 88
2019-12-06 19:00:00 10.7 13 Oeste 17 Oeste 0 -- -- 88
2019-12-06 18:00:00 11.7 8 Oeste 12 Oeste 0 -- -- 86
2019-12-06 17:00:00 13.8 6 Sudoeste 8 Sudoeste 0 -- -- 77
2019-12-06 16:00:00 13.9 3 Este 8 Este 0 -- -- 72
2019-12-06 15:00:00 13.6 4 Nordeste 10 Nordeste 0 -- -- 74
2019-12-06 14:00:00 12.8 6 Nordeste 10 Nordeste 0 -- -- 79
2019-12-06 13:00:00 11.3 5 Nordeste 10 Nordeste 0 -- -- 82
2019-12-06 12:00:00 10 3 Este 9 Nordeste 0 -- -- 88
2019-12-06 11:00:00 8.9 5 Este 12 Nordeste 0 -- -- 92
2019-12-06 10:00:00 8.4 3 Nordeste 8 Sudoeste 0 -- -- 95
2019-12-06 09:00:00 7.7 3 Noroeste 10 Oeste 0 -- -- 96
2019-12-06 08:00:00 7.3 3 Oeste 8 Oeste 0 -- -- 95
2019-12-06 07:00:00 7.7 6 Oeste 10 Oeste 0 -- -- 95
2019-12-06 06:00:00 7.1 4 Oeste 8 Oeste 0 -- -- 95
2019-12-06 05:00:00 7.8 3 Oeste 8 Oeste 0 -- -- 95
2019-12-06 04:00:00 7.2 2 Oeste 7 Este 0 -- -- 95
2019-12-06 03:00:00 7.3 0 Calma 8 Sudoeste 0 -- -- 95
2019-12-06 02:00:00 6.8 3 Oeste 9 Oeste 0 -- -- 95
2019-12-06 01:00:00 7.5 0 Calma 6 Noroeste 0 -- -- 94
2019-12-06 00:00:00 8.2 2 Noroeste 6 Noroeste 0 -- -- 95
2019-12-05 23:00:00 8.5 2 Sudoeste 8 Noroeste 0 -- -- 94
2019-12-05 22:00:00 8.7 4 Oeste 10 Oeste 0 -- -- 94
2019-12-05 21:00:00 9.5 3 Oeste 8 Nordeste 0.2 -- -- 92
2019-12-05 20:00:00 10.1 3 Noroeste 10 Noroeste 0 -- -- 90
2019-12-05 19:00:00 10.5 3 Norte 9 Oeste 0 -- -- 90
2019-12-05 18:00:00 11 5 Oeste 8 Oeste 0 -- -- 93
2019-12-05 17:00:00 11.4 3 Oeste 14 Sudeste 0 -- -- 91
2019-12-05 16:00:00 12.1 3 Sudoeste 5 Sudoeste 0 -- -- 84
2019-12-05 15:00:00 11.8 4 Sur 15 Oeste 0 -- -- 80
2019-12-05 14:00:00 11.2 10 Oeste 28 Noroeste 0 -- -- 82
2019-12-05 13:00:00 10.4 15 Oeste 26 Oeste 0.2 -- -- 86
2019-12-05 12:00:00 9.8 9 Oeste 21 Oeste 0 -- -- 86
2019-12-05 11:00:00 9 7 Oeste 16 Oeste 0.2 -- -- 91
2019-12-05 10:00:00 8.2 5 Sudoeste 12 Noroeste 0.2 -- -- 93
2019-12-05 09:00:00 8.1 5 Sudoeste 13 Oeste 0.4 -- -- 95
2019-12-05 08:00:00 8.4 3 Nordeste 14 Noroeste 0.4 -- -- 96
2019-12-05 07:00:00 9 5 Norte 13 Noroeste 0.6 -- -- 95
2019-12-05 06:00:00 9 8 Noroeste 15 Noroeste 1 -- -- 95
2019-12-05 05:00:00 9.2 4 Nordeste 6 Nordeste 1 -- -- 94
2019-12-05 04:00:00 9.7 4 Este 35 Este 1 -- -- 92
2019-12-05 03:00:00 9.9 8 Nordeste 20 Norte 0.4 -- -- 90
2019-12-05 02:00:00 8.8 4 Norte 10 Noroeste 0 -- -- 96
2019-12-05 01:00:00 7.9 3 Este 10 Nordeste 0.2 -- -- 96
2019-12-05 00:00:00 7.8 3 Sudeste 10 Este 0 -- -- 95
2019-12-04 23:00:00 8.3 3 Noroeste 9 Oeste 0 -- -- 95
2019-12-04 22:00:00 8.2 0 Calma 9 Sudeste 0.6 -- -- 94
2019-12-04 21:00:00 8.1 3 Este 14 Noroeste 0 -- -- 94
2019-12-04 20:00:00 8.5 11 Norte 22 Noroeste 0.4 -- -- 91
2019-12-04 19:00:00 8.6 14 Noroeste 22 Noroeste 0.6 -- -- 90
2019-12-04 18:00:00 8.7 5 Sudoeste 16 Noroeste 1 -- -- 91
2019-12-04 17:00:00 8.5 3 Este 10 Norte 1.2 -- -- 93
2019-12-04 16:00:00 8.8 2 Este 14 Oeste 0.6 -- -- 90
2019-12-04 15:00:00 8.7 4 Este 22 Noroeste 0.2 -- -- 88
2019-12-04 14:00:00 8.2 6 Noroeste 19 Norte 0.8 -- -- 88
2019-12-04 13:00:00 7.3 4 Sudoeste 16 Oeste 0.8 -- -- 89
2019-12-04 12:00:00 6.5 2 Sudeste 9 Nordeste 0.8 -- -- 90
2019-12-04 11:00:00 6.1 5 Nordeste 15 Noroeste 0 -- -- 86
2019-12-04 10:00:00 4.7 5 Nordeste 12 Norte 0 -- -- 88
2019-12-04 09:00:00 4 6 Este 10 Este 0 -- -- 91
2019-12-04 08:00:00 3.4 3 Este 9 Este 0 -- -- 93
2019-12-04 07:00:00 3.6 3 Sur 11 Oeste 0 -- -- 92
2019-12-04 06:00:00 3.6 8 Oeste 12 Oeste 0 -- -- 93
2019-12-04 05:00:00 3.5 8 Oeste 10 Oeste 0 -- -- 91
2019-12-04 04:00:00 4.6 3 Este 12 Este 0 -- -- 90
2019-12-04 03:00:00 4.5 0 Calma 6 Sudoeste 0 -- -- 91
2019-12-04 02:00:00 4.1 0 Calma 7 Oeste 0 -- -- 91
2019-12-04 01:00:00 4.2 4 Sudoeste 9 Oeste 0 -- -- 90
2019-12-04 00:00:00 4.2 3 Sudoeste 6 Oeste 0 -- -- 91
2019-12-03 23:00:00 3.9 2 Este 6 Nordeste 0 -- -- 90
2019-12-03 22:00:00 3.6 2 Sur 6 Oeste 0 -- -- 91
2019-12-03 21:00:00 3.5 4 Sur 9 Oeste 0 -- -- 89
2019-12-03 20:00:00 4.1 0 Calma 7 Norte 0 -- -- 87
2019-12-03 19:00:00 5.7 5 Noroeste 10 Noroeste 0 -- -- 82
2019-12-03 18:00:00 6.3 4 Noroeste 8 Norte 0 -- -- 79
2019-12-03 17:00:00 7.7 0 Calma 12 Este 0 -- -- 74
2019-12-03 16:00:00 8.1 6 Nordeste 12 Nordeste 0 -- -- 73
2019-12-03 15:00:00 7.6 4 Este 10 Nordeste 0 -- -- 75
2019-12-03 14:00:00 6.6 8 Nordeste 14 Nordeste 0 -- -- 79
2019-12-03 13:00:00 7.4 6 Este 10 Este 0 -- -- 76
2019-12-03 12:00:00 6.5 3 Norte 13 Nordeste 0 -- -- 80
2019-12-03 11:00:00 5.1 7 Nordeste 11 Oeste 0 -- -- 86
2019-12-03 10:00:00 2.5 5 Oeste 10 Oeste 0 -- -- 94
2019-12-03 09:00:00 0.7 8 Oeste 12 Oeste 0 -- -- 94
2019-12-03 08:00:00 0.5 8 Oeste 11 Oeste 0 -- -- 94
2019-12-03 07:00:00 0.7 7 Oeste 16 Oeste 0 -- -- 93
2019-12-03 06:00:00 1.3 12 Oeste 15 Sudoeste 0 -- -- 92
2019-12-03 05:00:00 1.9 12 Sudoeste 19 Oeste 0 -- -- 92
2019-12-03 04:00:00 1.9 6 Oeste 14 Sudoeste 0 -- -- 93
2019-12-03 03:00:00 2.3 8 Oeste 12 Oeste 0 -- -- 93
2019-12-03 02:00:00 2.2 5 Oeste 9 Oeste 0 -- -- 92
2019-12-03 01:00:00 2.9 8 Oeste 12 Oeste 0 -- -- 91
2019-12-03 00:00:00 3.3 5 Oeste 8 Oeste 0 -- -- 92
2019-12-02 23:00:00 4.2 6 Oeste 10 Oeste 0 -- -- 90
2019-12-02 22:00:00 5.1 3 Oeste 12 Oeste 0 -- -- 89
2019-12-02 21:00:00 6.5 9 Oeste 14 Oeste 0 -- -- 86
2019-12-02 20:00:00 6.9 8 Oeste 12 Oeste 0 -- -- 86
2019-12-02 19:00:00 7.9 7 Oeste 13 Oeste 0 -- -- 84
2019-12-02 18:00:00 9.8 8 Sudoeste 12 Sudoeste 0 -- -- 80
2019-12-02 17:00:00 12.3 9 Sudoeste 15 Sudoeste 0 -- -- 73
2019-12-02 16:00:00 13.7 5 Sudoeste 8 Sudoeste 0 -- -- 66
2019-12-02 15:00:00 12.8 6 Sur 13 Sur 0 -- -- 73
2019-12-02 14:00:00 12 5 Sur 14 Sur 0 -- -- 77
2019-12-02 13:00:00 10.2 9 Sur 17 Sur 0 -- -- 82
2019-12-02 12:00:00 8.3 8 Sur 17 Sudoeste 0 -- -- 89
2019-12-02 11:00:00 7.3 6 Sur 12 Sudoeste 0 -- -- 90
2019-12-02 10:00:00 4.2 8 Sudoeste 11 Sudoeste 0 -- -- 97
2019-12-02 09:00:00 2.8 7 Oeste 12 Oeste 0 -- -- 98
2019-12-02 08:00:00 2.3 7 Oeste 12 Oeste 0 -- -- 97
2019-12-02 07:00:00 2.1 5 Oeste 9 Oeste 0 -- -- 97
2019-12-02 06:00:00 1.7 3 Oeste 9 Oeste 0 -- -- 96
2019-12-02 05:00:00 2.9 0 Calma 10 Sudoeste 0 -- -- 96
2019-12-02 04:00:00 2.1 3 Noroeste 6 Oeste 0 -- -- 96
2019-12-02 03:00:00 2.5 0 Calma 8 Oeste 0 -- -- 96
2019-12-02 02:00:00 3 3 Oeste 10 Oeste 0 -- -- 95
2019-12-02 01:00:00 3.4 3 Noroeste 9 Noroeste 0 -- -- 94
2019-12-02 00:00:00 4.1 5 Oeste 8 Oeste 0 -- -- 93
2019-12-01 23:00:00 4.7 4 Noroeste 7 Noroeste 0 -- -- 93
2019-12-01 22:00:00 5.3 3 Oeste 8 Oeste 0 -- -- 92
2019-12-01 21:00:00 6.3 3 Sudoeste 13 Oeste 0 -- -- 90
2019-12-01 20:00:00 7.2 4 Sudoeste 9 Oeste 0 -- -- 88
2019-12-01 19:00:00 8.2 6 Oeste 9 Noroeste 0 -- -- 85
2019-12-01 18:00:00 9.4 5 Noroeste 6 Noroeste 0 -- -- 79
2019-12-01 17:00:00 13.2 3 Oeste 10 Oeste 0 -- -- 66
2019-12-01 16:00:00 14.6 3 Sudoeste 13 Oeste 0 -- -- 60
2019-12-01 15:00:00 13.6 7 Nordeste 13 Nordeste 0 -- -- 64
2019-12-01 14:00:00 13.7 5 Sur 10 Este 0.2 -- -- 67
2019-12-01 13:00:00 12.5 6 Nordeste 15 Nordeste 0 -- -- 79
2019-12-01 12:00:00 10.2 5 Este 11 Nordeste 0 -- -- 91
2019-12-01 11:00:00 8.2 6 Nordeste 9 Nordeste 0 -- -- 95
2019-12-01 10:00:00 6.4 3 Este 6 Este 0 -- -- 97
2019-12-01 09:00:00 4.8 3 Este 10 Oeste 0 -- -- 96
2019-12-01 08:00:00 5 7 Oeste 9 Noroeste 0 -- -- 95
2019-12-01 07:00:00 5.5 3 Oeste 6 Noroeste 0 -- -- 94
2019-12-01 06:00:00 6.7 5 Oeste 13 Sudoeste 0 -- -- 93
2019-12-01 05:00:00 8.8 13 Oeste 16 Oeste 0 -- -- 92
2019-12-01 04:00:00 9.5 9 Oeste 15 Sudoeste 0 -- -- 92
2019-12-01 03:00:00 9.9 5 Sudoeste 11 Oeste 0.8 -- -- 87
2019-12-01 02:00:00 11.4 4 Oeste 17 Oeste 0.2 -- -- 81
2019-12-01 01:00:00 12.3 9 Oeste 15 Noroeste 0 -- -- 77
2019-12-01 00:00:00 12.2 7 Oeste 13 Noroeste 0 -- -- 85
2019-11-30 23:00:00 12.1 2 Sur 17 Oeste 0 -- -- 85
2019-11-30 22:00:00 12.8 15 Oeste 38 Oeste 0 -- -- 81
2019-11-30 21:00:00 11 0 Calma 12 Noroeste 0 -- -- 82
2019-11-30 20:00:00 10.4 5 Noroeste 10 Oeste 0 -- -- 84
2019-11-30 19:00:00 10.4 4 Oeste 8 Oeste 0 -- -- 83
2019-11-30 18:00:00 11.6 4 Oeste 6 Noroeste 0 -- -- 79
2019-11-30 17:00:00 14.8 2 Sur 8 Este 0 -- -- 69
2019-11-30 16:00:00 14.8 6 Este 14 Este 0 -- -- 67
2019-11-30 15:00:00 14.7 5 Este 13 Este 0 -- -- 67
2019-11-30 14:00:00 13.7 4 Nordeste 12 Norte 0 -- -- 70
2019-11-30 13:00:00 11.9 4 Norte 11 Nordeste 0 -- -- 75
2019-11-30 12:00:00 10.6 6 Nordeste 10 Nordeste 0 -- -- 78
2019-11-30 11:00:00 9.9 3 Este 12 Nordeste 0 -- -- 80
2019-11-30 10:00:00 7.3 5 Este 8 Este 0 -- -- 88
2019-11-30 09:00:00 4.8 0 Calma 5 Oeste 0 -- -- 95
2019-11-30 08:00:00 3.7 2 Oeste 6 Sudoeste 0 -- -- 94
2019-11-30 07:00:00 4.3 5 Oeste 9 Oeste 0 -- -- 94
2019-11-30 06:00:00 4.2 3 Oeste 6 Este 0 -- -- 94
2019-11-30 05:00:00 4.2 0 Calma 6 Oeste 0 -- -- 94
2019-11-30 04:00:00 4.2 2 Sudoeste 8 Nordeste 0 -- -- 92
2019-11-30 03:00:00 5 2 Oeste 6 Noroeste 0 -- -- 92
2019-11-30 02:00:00 5.8 3 Noroeste 7 Oeste 0 -- -- 91
2019-11-30 01:00:00 6.1 6 Noroeste 9 Noroeste 0 -- -- 88
2019-11-30 00:00:00 7.8 6 Oeste 13 Oeste 0 -- -- 87
2019-11-29 23:00:00 9.6 10 Oeste 18 Oeste 0 -- -- 82
2019-11-29 22:00:00 10.1 12 Oeste 14 Oeste 0 -- -- 76
2019-11-29 21:00:00 10.4 7 Oeste 12 Sudoeste 0 -- -- 75
2019-11-29 20:00:00 12.5 6 Oeste 23 Oeste 0 -- -- 66
2019-11-29 19:00:00 13.2 14 Sudoeste 18 Sudoeste 0 -- -- 65
2019-11-29 18:00:00 15.1 8 Sudoeste 22 Oeste 0 -- -- 58
2019-11-29 17:00:00 16.9 12 Oeste 27 Oeste 0 -- -- 53
2019-11-29 16:00:00 18.6 17 Oeste 35 Oeste 0 -- -- 49
2019-11-29 15:00:00 18.8 24 Oeste 42 Oeste 0 -- -- 49
2019-11-29 14:00:00 18.8 21 Oeste 40 Oeste 0 -- -- 50
2019-11-29 13:00:00 18.6 23 Oeste 44 Oeste 0 -- -- 51
2019-11-29 12:00:00 18.8 23 Oeste 37 Oeste 0 -- -- 48
2019-11-29 11:00:00 17.9 18 Oeste 32 Oeste 0 -- -- 53
2019-11-29 10:00:00 16.9 12 Oeste 27 Oeste 0 -- -- 63
2019-11-29 09:00:00 14.4 13 Sudoeste 23 Oeste 0 -- -- 74
2019-11-29 08:00:00 13.2 16 Sudoeste 23 Sudoeste 0 -- -- 78
2019-11-29 07:00:00 10.9 11 Oeste 15 Sudoeste 0 -- -- 84
2019-11-29 06:00:00 10.3 4 Oeste 11 Oeste 0 -- -- 84
2019-11-29 05:00:00 10.6 0 Calma 8 Oeste 0 -- -- 81
2019-11-29 04:00:00 10.5 8 Oeste 10 Oeste 0 -- -- 80
2019-11-29 03:00:00 10.9 5 Noroeste 6 Noroeste 0 -- -- 78
2019-11-29 02:00:00 11.7 5 Oeste 8 Oeste 0 -- -- 75
2019-11-29 01:00:00 13.4 6 Oeste 11 Oeste 0 -- -- 68
2019-11-29 00:00:00 14.7 9 Oeste 36 Sudoeste 0 -- -- 63
2019-11-28 23:00:00 15.5 30 Sudoeste 49 Sudoeste 0 -- -- 60
2019-11-28 22:00:00 15.9 36 Sudoeste 50 Sudoeste 0 -- -- 57
2019-11-28 21:00:00 15.5 13 Oeste 28 Oeste 0 -- -- 59
2019-11-28 20:00:00 15.6 12 Sudoeste 25 Sudoeste 0 -- -- 59
2019-11-28 19:00:00 15.9 11 Oeste 24 Oeste 0 -- -- 59
2019-11-28 18:00:00 16.1 6 Oeste 12 Oeste 0 -- -- 60
2019-11-28 17:00:00 17 7 Oeste 20 Oeste 0 -- -- 58
2019-11-28 16:00:00 18 9 Oeste 29 Oeste 0 -- -- 56
2019-11-28 15:00:00 18.4 19 Oeste 33 Oeste 0 -- -- 54
2019-11-28 14:00:00 18.5 16 Oeste 33 Sudoeste 0 -- -- 53
2019-11-28 13:00:00 18.2 15 Oeste 26 Oeste 0 -- -- 55
2019-11-28 12:00:00 16.5 9 Oeste 18 Noroeste 0 -- -- 60
2019-11-28 11:00:00 12.7 5 Nordeste 13 Nordeste 0 -- -- 74
2019-11-28 10:00:00 9.3 8 Nordeste 12 Nordeste 0 -- -- 83
2019-11-28 09:00:00 8.2 2 Este 14 Sudoeste 0 -- -- 84
2019-11-28 08:00:00 7.3 9 Oeste 14 Oeste 0 -- -- 88
2019-11-28 07:00:00 6.8 4 Oeste 14 Oeste 0 -- -- 88
2019-11-28 06:00:00 8.4 13 Oeste 16 Sudoeste 0 -- -- 83
2019-11-28 05:00:00 7.5 0 Calma 9 Noroeste 0 -- -- 85
2019-11-28 04:00:00 8.2 5 Noroeste 10 Oeste 0 -- -- 82
2019-11-28 03:00:00 10.1 8 Oeste 13 Oeste 0 -- -- 76
2019-11-28 02:00:00 12.2 12 Oeste 22 Oeste 0 -- -- 69
2019-11-28 01:00:00 11.6 9 Oeste 14 Oeste 0 -- -- 72
2019-11-28 00:00:00 10.5 7 Oeste 9 Sudoeste 0 -- -- 77
2019-11-27 23:00:00 10.9 8 Oeste 12 Oeste 0 -- -- 76
2019-11-27 22:00:00 10.9 9 Oeste 14 Oeste 0 -- -- 76
2019-11-27 21:00:00 11.8 8 Oeste 11 Oeste 0 -- -- 71
2019-11-27 20:00:00 12 8 Oeste 12 Oeste 0 -- -- 69
2019-11-27 19:00:00 12.1 3 Sudoeste 10 Oeste 0 -- -- 67
2019-11-27 18:00:00 13.5 9 Noroeste 15 Noroeste 0 -- -- 62
2019-11-27 17:00:00 16.2 5 Noroeste 14 Noroeste 0 -- -- 55
2019-11-27 16:00:00 17.5 13 Oeste 30 Oeste 0 -- -- 49
2019-11-27 15:00:00 17.6 19 Oeste 31 Oeste 0 -- -- 48
2019-11-27 14:00:00 17.2 12 Noroeste 28 Oeste 0 -- -- 52
2019-11-27 06:00:00 -- -- -- -- -- -- -- -- --
2019-11-27 05:00:00 7.9 15 Oeste 22 Oeste 0 -- -- 97
2019-11-27 04:00:00 7.5 5 Sudoeste 9 Sur 0 -- -- 96
2019-11-27 03:00:00 7.8 4 Noroeste 6 Noroeste 0 -- -- 96
2019-11-27 02:00:00 8.3 0 Calma 13 Oeste 0 -- -- 94
2019-11-27 01:00:00 8.5 5 Oeste 9 Oeste 0 -- -- 94
2019-11-27 00:00:00 9.5 6 Oeste 10 Oeste 0 -- -- 93
2019-11-26 23:00:00 10.2 2 Norte 7 Noroeste 0 -- -- 91
2019-11-26 22:00:00 10.6 2 Nordeste 4 Nordeste 0 -- -- 91
2019-11-26 21:00:00 10.8 3 Noroeste 6 Oeste 0.2 -- -- 89
2019-11-26 20:00:00 10.7 5 Noroeste 8 Oeste 0 -- -- 86
2019-11-26 19:00:00 11.1 5 Oeste 10 Oeste 0 -- -- 84
2019-11-26 18:00:00 12.3 2 Oeste 7 Nordeste 0 -- -- 80
2019-11-26 17:00:00 14.2 4 Este 13 Este 0 -- -- 73
2019-11-26 16:00:00 14.8 9 Este 12 Este 0 -- -- 71
2019-11-26 15:00:00 14.2 8 Este 13 Este 0 -- -- 73
2019-11-26 14:00:00 13.8 4 Este 12 Este 0 -- -- 71
2019-11-26 13:00:00 12.4 5 Este 11 Este 0 -- -- 76
2019-11-26 12:00:00 10.9 9 Nordeste 13 Nordeste 0 -- -- 81
2019-11-26 11:00:00 7.4 9 Nordeste 12 Nordeste 0 -- -- 95
2019-11-26 10:00:00 6.7 2 Este 9 Sudoeste 0 -- -- 98
2019-11-26 09:00:00 4.1 3 Sur 8 Oeste 0 -- -- 97
2019-11-26 08:00:00 4 6 Oeste 9 Oeste 0 -- -- 97
2019-11-26 07:00:00 4.6 4 Oeste 9 Oeste 0 -- -- 97
2019-11-26 06:00:00 5 6 Oeste 9 Oeste 0 -- -- 96
2019-11-26 05:00:00 5 0 Calma 8 Noroeste 0 -- -- 95
2019-11-26 04:00:00 5.6 0 Calma 5 Noroeste 0 -- -- 94
2019-11-26 03:00:00 6.4 3 Este 7 Oeste 0 -- -- 94
2019-11-26 02:00:00 7.2 2 Nordeste 8 Noroeste 0 -- -- 92
2019-11-26 01:00:00 8.2 4 Noroeste 11 Oeste 0 -- -- 91
2019-11-26 00:00:00 8.7 3 Oeste 8 Oeste 0 -- -- 89
2019-11-25 23:00:00 9.5 3 Norte 7 Noroeste 0 -- -- 86
2019-11-25 22:00:00 10.5 3 Noroeste 9 Nordeste 0 -- -- 83
2019-11-25 21:00:00 12.7 6 Nordeste 13 Sudoeste 0 -- -- 76
2019-11-25 20:00:00 13.3 12 Sudoeste 17 Oeste 0 -- -- 74
2019-11-25 19:00:00 15.1 16 Sudoeste 23 Oeste 0 -- -- 68
2019-11-25 18:00:00 15.7 15 Oeste 23 Oeste 0 -- -- 64
2019-11-25 17:00:00 17.4 16 Oeste 27 Oeste 0 -- -- 58
2019-11-25 16:00:00 18.3 19 Oeste 33 Oeste 0 -- -- 57
2019-11-25 15:00:00 18.6 17 Oeste 33 Oeste 0 -- -- 56
2019-11-25 14:00:00 17.4 15 Oeste 26 Oeste 0 -- -- 62
2019-11-25 13:00:00 14 5 Nordeste 10 Nordeste 0 -- -- 71
2019-11-25 12:00:00 12.2 7 Este 11 Nordeste 0 -- -- 75
2019-11-25 11:00:00 10.4 8 Nordeste 14 Nordeste 0 -- -- 81
2019-11-25 10:00:00 8.3 4 Oeste 13 Nordeste 0 -- -- 89
2019-11-25 09:00:00 6.9 5 Norte 10 Nordeste 0 -- -- 93
2019-11-25 08:00:00 6.2 3 Oeste 9 Nordeste 0 -- -- 92
2019-11-25 07:00:00 6.3 4 Norte 11 Nordeste 0 -- -- 92
2019-11-25 06:00:00 6.8 8 Oeste 13 Oeste 0 -- -- 88
2019-11-25 05:00:00 7.3 10 Oeste 15 Oeste 0 -- -- 87
2019-11-25 04:00:00 6.8 9 Oeste 12 Oeste 0 -- -- 88
2019-11-25 03:00:00 7.1 6 Oeste 12 Oeste 0 -- -- 91
2019-11-25 02:00:00 6.8 6 Oeste 9 Sudoeste 0.2 -- -- 90
2019-11-25 01:00:00 7.1 3 Sudoeste 12 Oeste 0 -- -- 83
2019-11-25 00:00:00 6.5 8 Oeste 13 Sudoeste 0 -- -- 83
2019-11-24 23:00:00 6.3 8 Oeste 12 Oeste 0 -- -- 82
2019-11-24 22:00:00 8.6 4 Oeste 16 Oeste 0 -- -- 74
2019-11-24 21:00:00 9.5 10 Oeste 18 Sudoeste 0 -- -- 72
2019-11-24 20:00:00 9.7 13 Sudoeste 19 Sudoeste 0 -- -- 73
2019-11-24 19:00:00 10.4 13 Sudoeste 22 Sudoeste 0 -- -- 68
2019-11-24 18:00:00 11.5 16 Sudoeste 29 Oeste 0 -- -- 63
2019-11-24 17:00:00 13 17 Oeste 50 Oeste 0 -- -- 60
2019-11-24 16:00:00 13.6 31 Oeste 57 Oeste 0 -- -- 57
2019-11-24 15:00:00 13.7 30 Oeste 55 Oeste 0 -- -- 58
2019-11-24 14:00:00 13.5 31 Oeste 55 Oeste 0 -- -- 59
2019-11-24 13:00:00 13.7 32 Oeste 55 Oeste 0 -- -- 56
2019-11-24 12:00:00 13.4 23 Noroeste 53 Noroeste 0 -- -- 59
2019-11-24 11:00:00 12.6 25 Noroeste 49 Noroeste 0 -- -- 60
2019-11-24 10:00:00 11 21 Oeste 48 Oeste 0 -- -- 65
2019-11-24 09:00:00 10.2 31 Oeste 60 Oeste 0 -- -- 65
2019-11-24 08:00:00 9.8 34 Oeste 65 Oeste 0 -- -- 66
2019-11-24 07:00:00 9.6 39 Oeste 66 Oeste 0 -- -- 69
2019-11-24 06:00:00 9.7 31 Oeste 62 Oeste 0 -- -- 68
2019-11-24 05:00:00 9.6 30 Oeste 50 Noroeste 0 -- -- 69
2019-11-24 04:00:00 9.8 33 Oeste 60 Oeste 0 -- -- 69
2019-11-24 03:00:00 10 31 Oeste 56 Oeste 0 -- -- 68
2019-11-24 02:00:00 10.1 26 Oeste 58 Oeste 0 -- -- 68
2019-11-24 01:00:00 10.3 34 Oeste 59 Oeste 0 -- -- 67
2019-11-24 00:00:00 10.1 28 Oeste 58 Oeste 0 -- -- 69
2019-11-23 23:00:00 10.3 31 Oeste 60 Oeste 0 -- -- 69
2019-11-23 22:00:00 10.3 30 Oeste 55 Oeste 0 -- -- 68
2019-11-23 21:00:00 10.1 31 Oeste 63 Oeste 0 -- -- 68
2019-11-23 20:00:00 10.5 42 Oeste 79 Oeste 0 -- -- 67
2019-11-23 19:00:00 10.5 32 Oeste 59 Oeste 0 -- -- 68
2019-11-23 18:00:00 11.3 32 Oeste 56 Oeste 0 -- -- 65
2019-11-23 17:00:00 11.4 36 Oeste 60 Oeste 0 -- -- 64
2019-11-23 16:00:00 11.5 36 Oeste 64 Oeste 0 -- -- 64
2019-11-23 15:00:00 12.4 29 Oeste 57 Oeste 0 -- -- 63
2019-11-23 14:00:00 12.3 30 Oeste 57 Oeste 0 -- -- 64
2019-11-23 13:00:00 11.8 25 Oeste 58 Oeste 0 -- -- 73
2019-11-23 12:00:00 10.5 20 Oeste 41 Oeste 0 -- -- 81
2019-11-23 11:00:00 9.3 14 Oeste 34 Oeste 0.4 -- -- 87
2019-11-23 10:00:00 9.3 19 Oeste 41 Oeste 0 -- -- 84
2019-11-23 09:00:00 9.5 16 Sudoeste 22 Sudoeste 0 -- -- 78
2019-11-23 08:00:00 7.8 9 Sudoeste 14 Sudoeste 0 -- -- 85
2019-11-23 07:00:00 8.5 10 Oeste 20 Sudoeste 0 -- -- 84
2019-11-23 06:00:00 9.3 13 Sudoeste 20 Sudoeste 0 -- -- 82
2019-11-23 05:00:00 9.3 6 Sudoeste 15 Sudoeste 0 -- -- 89
2019-11-23 04:00:00 8.6 10 Oeste 14 Oeste 0 -- -- 93
2019-11-23 03:00:00 8.4 6 Oeste 10 Sudoeste 0 -- -- 95
2019-11-23 02:00:00 8.7 8 Sudoeste 16 Sudoeste 0 -- -- 92
2019-11-23 01:00:00 10.6 11 Sudoeste 16 Sudoeste 0.2 -- -- 89
2019-11-23 00:00:00 11.6 8 Oeste 45 Sudoeste 0.6 -- -- 86
2019-11-22 23:00:00 12.6 10 Sur 16 Sudeste 0 -- -- 88
2019-11-22 22:00:00 12.6 10 Este 28 Este 0 -- -- 91
2019-11-22 21:00:00 12.4 17 Este 33 Este 0 -- -- 92
2019-11-22 20:00:00 11.5 17 Este 33 Este 0 -- -- 95
2019-11-22 19:00:00 11.3 20 Este 34 Este 0.6 -- -- 92
2019-11-22 18:00:00 11.6 15 Este 27 Este 1 -- -- 88
2019-11-22 17:00:00 11.6 18 Este 32 Este 0 -- -- 88
2019-11-22 16:00:00 11.3 17 Este 35 Este 0 -- -- 86
2019-11-22 15:00:00 10 12 Este 22 Este 0.4 -- -- 90
2019-11-22 14:00:00 10.6 2 Nordeste 18 Nordeste 0 -- -- 81
2019-11-22 13:00:00 9.5 10 Nordeste 15 Este 0 -- -- 79
2019-11-22 12:00:00 7.8 5 Nordeste 15 Nordeste 0 -- -- 85
2019-11-22 11:00:00 6 6 Nordeste 14 Nordeste 0 -- -- 90
2019-11-22 10:00:00 4.8 2 Noroeste 5 Nordeste 0 -- -- 95
2019-11-22 09:00:00 3.3 5 Nordeste 8 Nordeste 0 -- -- 96
2019-11-22 08:00:00 3 6 Nordeste 8 Nordeste 0 -- -- 95
2019-11-22 07:00:00 3 0 Calma 5 Noroeste 0 -- -- 95
2019-11-22 06:00:00 3.2 0 Calma 5 Este 0 -- -- 94
2019-11-22 05:00:00 3.2 0 Calma 5 Oeste 0 -- -- 94
2019-11-22 04:00:00 3.4 3 Noroeste 5 Noroeste 0 -- -- 94
2019-11-22 03:00:00 3.8 4 Noroeste 5 Noroeste 0 -- -- 93
2019-11-22 02:00:00 4.1 4 Nordeste 6 Nordeste 0 -- -- 93
2019-11-22 01:00:00 4.3 3 Oeste 7 Nordeste 0 -- -- 92
2019-11-22 00:00:00 4.2 0 Calma 6 Nordeste 0 -- -- 91
2019-11-21 23:00:00 5 2 Sudoeste 5 Este 0 -- -- 90
2019-11-21 22:00:00 5.5 0 Calma 8 Nordeste 0 -- -- 88
2019-11-21 21:00:00 5.9 2 Noroeste 8 Nordeste 0 -- -- 86
2019-11-21 20:00:00 6.9 4 Norte 7 Noroeste 0 -- -- 82
2019-11-21 19:00:00 7.8 2 Noroeste 6 Noroeste 0 -- -- 79
2019-11-21 18:00:00 9.6 0 Calma 5 Nordeste 0 -- -- 73
2019-11-21 17:00:00 12.1 4 Nordeste 13 Nordeste 0 -- -- 64
2019-11-21 16:00:00 12.6 9 Este 17 Este 0 -- -- 63
2019-11-21 15:00:00 12.7 9 Este 14 Este 0 -- -- 64
2019-11-21 14:00:00 12.5 9 Este 12 Este 0 -- -- 65
2019-11-21 13:00:00 11 6 Este 13 Nordeste 0 -- -- 74
2019-11-21 12:00:00 7.9 8 Nordeste 13 Nordeste 0 -- -- 84
2019-11-21 11:00:00 6.2 4 Nordeste 7 Nordeste 0 -- -- 90
2019-11-21 10:00:00 4.8 3 Nordeste 11 Sudoeste 0 -- -- 92
2019-11-21 09:00:00 4 4 Oeste 10 Oeste 0 -- -- 94
2019-11-21 08:00:00 2.8 6 Oeste 10 Oeste 0 -- -- 93
2019-11-21 07:00:00 3.5 4 Oeste 7 Oeste 0 -- -- 92
2019-11-21 06:00:00 4.5 4 Oeste 8 Oeste 0 -- -- 89
2019-11-21 05:00:00 5.2 4 Oeste 6 Oeste 0 -- -- 90
2019-11-21 04:00:00 4.8 2 Noroeste 6 Nordeste 0 -- -- 89
2019-11-21 03:00:00 5.1 2 Este 4 Este 0 -- -- 88
2019-11-21 02:00:00 4.9 0 Calma 4 Oeste 0 -- -- 89
2019-11-21 01:00:00 4.1 3 Oeste 4 Oeste 0 -- -- 91
2019-11-21 00:00:00 3.6 3 Oeste 6 Este 0 -- -- 91
2019-11-20 23:00:00 3.7 0 Calma 7 Sur 0 -- -- 90
2019-11-20 22:00:00 3.5 3 Noroeste 5 Noroeste 0 -- -- 90
2019-11-20 21:00:00 4.3 2 Sudoeste 4 Nordeste 0 -- -- 88
2019-11-20 20:00:00 5.4 2 Oeste 5 Oeste 0 -- -- 84
2019-11-20 19:00:00 6.1 3 Oeste 7 Oeste 0 -- -- 81
2019-11-20 18:00:00 7.9 0 Calma 4 Oeste 0 -- -- 74
2019-11-20 17:00:00 10.2 3 Nordeste 10 Este 0 -- -- 66
2019-11-20 16:00:00 10.6 7 Este 11 Este 0 -- -- 63
2019-11-20 15:00:00 10.3 5 Nordeste 13 Este 0 -- -- 64
2019-11-20 14:00:00 8.9 3 Noroeste 10 Oeste 0 -- -- 68
2019-11-20 13:00:00 7.3 5 Nordeste 12 Este 0 -- -- 73
2019-11-20 12:00:00 5.7 4 Nordeste 11 Nordeste 0 -- -- 79
2019-11-20 11:00:00 3.7 6 Nordeste 13 Nordeste 0 -- -- 86
2019-11-20 10:00:00 1.5 7 Nordeste 9 Nordeste 0 -- -- 92
2019-11-20 09:00:00 0.1 0 Calma 4 Nordeste 0 -- -- 97
2019-11-20 08:00:00 -1.3 0 Calma 3 Nordeste 0 -- -- 95
2019-11-20 07:00:00 -1.1 0 Calma 5 Oeste 0 -- -- 95
2019-11-20 06:00:00 -0.7 2 Noroeste 5 Oeste 0 -- -- 95
2019-11-20 05:00:00 -0.7 4 Oeste 6 Noroeste 0 -- -- 94
2019-11-20 04:00:00 -0.4 5 Oeste 6 Oeste 0 -- -- 96
2019-11-20 03:00:00 -0.7 0 Calma 5 Oeste 0 -- -- 95
2019-11-20 02:00:00 -0.8 0 Calma 5 Este 0 -- -- 94
2019-11-20 01:00:00 -0.1 3 Oeste 5 Noroeste 0 -- -- 94
2019-11-20 00:00:00 0.8 0 Calma 4 Oeste 0 -- -- 93
2019-11-19 23:00:00 1 0 Calma 6 Oeste 0 -- -- 91
2019-11-19 22:00:00 2.3 6 Oeste 9 Oeste 0 -- -- 89
2019-11-19 21:00:00 3.1 0 Calma 6 Oeste 0 -- -- 88
2019-11-19 20:00:00 4.1 4 Oeste 6 Oeste 0 -- -- 85
2019-11-19 19:00:00 5.4 0 Calma 6 Oeste 0 -- -- 80
2019-11-19 18:00:00 7.2 0 Calma 5 Sur 0 -- -- 73
2019-11-19 17:00:00 10.4 4 Nordeste 6 Nordeste 0 -- -- 61
2019-11-19 16:00:00 11.4 2 Sudeste 9 Este 0 -- -- 58
2019-11-19 15:00:00 10.7 8 Este 12 Nordeste 0 -- -- 58
2019-11-19 14:00:00 10.5 6 Sur 13 Sudeste 0 -- -- 60
2019-11-19 13:00:00 8.7 6 Oeste 12 Oeste 0 -- -- 63
2019-11-19 12:00:00 6.3 6 Este 15 Nordeste 0 -- -- 70
2019-11-19 11:00:00 3.8 8 Este 13 Nordeste 0 -- -- 80
2019-11-19 10:00:00 1.3 8 Nordeste 12 Nordeste 0 -- -- 87
2019-11-19 09:00:00 -0.8 5 Nordeste 9 Noroeste 0 -- -- 93
2019-11-19 08:00:00 -2.1 3 Oeste 7 Oeste 0 -- -- 92
2019-11-19 07:00:00 -1.2 4 Noroeste 17 Sudoeste 0 -- -- 91
2019-11-19 06:00:00 -0.2 12 Oeste 17 Sudoeste 0 -- -- 90
2019-11-19 05:00:00 0.3 9 Oeste 13 Sudoeste 0 -- -- 89
2019-11-19 04:00:00 0 4 Oeste 11 Oeste 0 -- -- 88
2019-11-19 03:00:00 1.4 11 Oeste 16 Oeste 0 -- -- 83
2019-11-19 02:00:00 1.7 9 Oeste 19 Sudoeste 0 -- -- 84
2019-11-19 01:00:00 2.8 12 Sudoeste 20 Sudoeste 0 -- -- 79
2019-11-19 00:00:00 4.4 6 Sudoeste 11 Sudoeste 0 -- -- 72
2019-11-18 23:00:00 6.1 10 Oeste 30 Oeste 0 -- -- 66
2019-11-18 22:00:00 6.1 15 Oeste 29 Oeste 0 -- -- 65
2019-11-18 21:00:00 6.5 12 Sudoeste 27 Oeste 0 -- -- 62
2019-11-18 20:00:00 7.3 11 Sudoeste 28 Oeste 0 -- -- 59
2019-11-18 19:00:00 8 11 Oeste 22 Oeste 0 -- -- 60
2019-11-18 18:00:00 9.3 11 Oeste 27 Oeste 0 -- -- 54
2019-11-18 17:00:00 11.3 17 Oeste 41 Oeste 0 -- -- 48
2019-11-18 16:00:00 12.8 4 Sudeste 12 Este 0 -- -- 60
2019-11-18 15:00:00 12.7 7 Este 14 Nordeste 0 -- -- 60
2019-11-18 14:00:00 13.1 6 Oeste 21 Noroeste 0 -- -- 53
2019-11-18 13:00:00 11.8 7 Noroeste 16 Noroeste 0 -- -- 56
2019-11-18 12:00:00 10.4 10 Oeste 23 Oeste 0 -- -- 61
2019-11-18 11:00:00 9.6 13 Noroeste 28 Noroeste 0 -- -- 66
2019-11-18 10:00:00 7.4 7 Norte 15 Norte 0 -- -- 88
2019-11-18 09:00:00 4.2 0 Calma 8 Noroeste 0 -- -- 96
2019-11-18 08:00:00 3 2 Noroeste 9 Oeste 0 -- -- 95
2019-11-18 07:00:00 3.2 5 Oeste 13 Nordeste 0 -- -- 94
2019-11-18 06:00:00 4.5 9 Nordeste 13 Nordeste 0 -- -- 95
2019-11-18 05:00:00 4.6 6 Oeste 9 Sudoeste 0 -- -- 95
2019-11-18 04:00:00 4.9 6 Oeste 10 Oeste 0 -- -- 95
2019-11-18 03:00:00 4.5 4 Oeste 9 Oeste 0 -- -- 94
2019-11-18 02:00:00 5.3 3 Oeste 10 Nordeste 0 -- -- 92
2019-11-18 01:00:00 6.9 3 Oeste 7 Este 0 -- -- 89
2019-11-18 00:00:00 7.4 6 Nordeste 12 Nordeste 0 -- -- 89
2019-11-17 23:00:00 7.7 3 Nordeste 6 Oeste 0 -- -- 87
2019-11-17 22:00:00 8.5 0 Calma 19 Oeste 0 -- -- 83
2019-11-17 21:00:00 9.4 15 Sudoeste 24 Sudoeste 0 -- -- 79
2019-11-17 20:00:00 9.4 18 Sudoeste 26 Sudoeste 0 -- -- 79
2019-11-17 19:00:00 9.6 18 Sudoeste 23 Oeste 0 -- -- 80
2019-11-17 18:00:00 10 13 Oeste 22 Oeste 0 -- -- 79
2019-11-17 17:00:00 12 18 Oeste 37 Noroeste 0 -- -- 64
2019-11-17 16:00:00 12.8 17 Oeste 35 Oeste 0 -- -- 57
2019-11-17 15:00:00 12.7 18 Oeste 31 Oeste 0 -- -- 57
2019-11-17 14:00:00 12.9 18 Oeste 26 Noroeste 0 -- -- 55
2019-11-17 13:00:00 12.1 15 Oeste 32 Sudoeste 0 -- -- 54
2019-11-17 12:00:00 11.8 21 Oeste 37 Oeste 0 -- -- 55
2019-11-17 11:00:00 9.8 23 Sudoeste 34 Oeste 0 -- -- 60
2019-11-17 10:00:00 8.2 20 Oeste 30 Sudoeste 0 -- -- 66
2019-11-17 09:00:00 8.3 15 Oeste 28 Oeste 0 -- -- 65
2019-11-17 08:00:00 6.9 16 Sudoeste 37 Sudoeste 0 -- -- 69
2019-11-17 07:00:00 6.6 30 Sudoeste 37 Sudoeste 0 -- -- 69
2019-11-17 06:00:00 6 20 Sudoeste 32 Oeste 0 -- -- 71
2019-11-17 05:00:00 7.2 18 Oeste 29 Oeste 0 -- -- 68
2019-11-17 04:00:00 5.4 10 Sudoeste 27 Oeste 0 -- -- 74
2019-11-17 03:00:00 7.4 13 Oeste 26 Oeste 0 -- -- 68
2019-11-17 02:00:00 7.7 16 Oeste 30 Oeste 0 -- -- 66
2019-11-17 01:00:00 6.1 9 Oeste 20 Sudoeste 0 -- -- 75
2019-11-17 00:00:00 5.3 0 Calma 15 Oeste 0 -- -- 78
2019-11-16 23:00:00 6.4 10 Sudoeste 18 Oeste 0 -- -- 75
2019-11-16 22:00:00 5.7 8 Oeste 17 Sudoeste 0 -- -- 79
2019-11-16 21:00:00 5.4 7 Sudoeste 14 Oeste 0 -- -- 86
2019-11-16 20:00:00 6.5 9 Oeste 17 Oeste 0 -- -- 83
2019-11-16 19:00:00 6.5 7 Oeste 14 Oeste 0 -- -- 84
2019-11-16 18:00:00 7.2 7 Oeste 17 Oeste 0 -- -- 80
2019-11-16 17:00:00 8 10 Noroeste 26 Noroeste 0 -- -- 76
2019-11-16 16:00:00 8.9 17 Noroeste 27 Noroeste 0 -- -- 69
2019-11-16 15:00:00 8.8 9 Noroeste 19 Noroeste 0 -- -- 70
2019-11-16 14:00:00 7.8 6 Nordeste 14 Noroeste 0 -- -- 73
2019-11-16 13:00:00 6.8 6 Nordeste 16 Nordeste 0 -- -- 75
2019-11-16 12:00:00 6 7 Nordeste 16 Nordeste 0 -- -- 78
2019-11-16 11:00:00 4.9 6 Este 15 Nordeste 0 -- -- 84
2019-11-16 10:00:00 2.8 8 Nordeste 13 Nordeste 0 -- -- 91
2019-11-16 09:00:00 0.8 3 Sur 12 Sudoeste 0 -- -- 96
2019-11-16 08:00:00 -0.7 3 Oeste 11 Oeste 0 -- -- 95
2019-11-16 07:00:00 -0.2 9 Oeste 13 Oeste 0 -- -- 95
2019-11-16 06:00:00 0 9 Oeste 13 Oeste 0 -- -- 95
2019-11-16 05:00:00 0.1 3 Sudoeste 7 Noroeste 0 -- -- 92
2019-11-16 04:00:00 1.3 4 Norte 11 Sudoeste 0 -- -- 91
2019-11-16 03:00:00 2.1 4 Sur 11 Sudoeste 0 -- -- 88
2019-11-16 02:00:00 2.3 3 Este 11 Noroeste 0 -- -- 87
2019-11-16 01:00:00 3.5 4 Oeste 19 Sudoeste 0 -- -- 81
2019-11-16 00:00:00 5 14 Sudoeste 20 Oeste 0 -- -- 79
2019-11-15 23:00:00 5.5 5 Oeste 25 Sudoeste 0 -- -- 79
2019-11-15 22:00:00 5.8 10 Oeste 28 Oeste 0 -- -- 78
2019-11-15 21:00:00 6.7 21 Oeste 32 Oeste 0 -- -- 74
2019-11-15 20:00:00 6.7 12 Sudoeste 29 Oeste 0 -- -- 73
2019-11-15 19:00:00 7.5 8 Sudoeste 19 Noroeste 0 -- -- 71
2019-11-15 18:00:00 8.4 18 Oeste 28 Oeste 0 -- -- 67
2019-11-15 17:00:00 9.6 19 Oeste 31 Oeste 0 -- -- 63
2019-11-15 16:00:00 9.4 9 Oeste 17 Oeste 0 -- -- 70
2019-11-15 15:00:00 9 5 Norte 10 Este 0 -- -- 74
2019-11-15 14:00:00 8.6 8 Nordeste 12 Nordeste 0 -- -- 71
2019-11-15 13:00:00 8.7 7 Nordeste 13 Norte 0 -- -- 70
2019-11-15 12:00:00 8.5 5 Nordeste 10 Nordeste 0 -- -- 73
2019-11-15 11:00:00 6.3 7 Nordeste 13 Nordeste 0 -- -- 84
2019-11-15 10:00:00 4.8 7 Nordeste 11 Nordeste 0 -- -- 89
2019-11-15 09:00:00 2.6 0 Calma 12 Oeste 0 -- -- 96
2019-11-15 08:00:00 0.7 6 Oeste 10 Oeste 0 -- -- 94
2019-11-15 07:00:00 1 5 Oeste 7 Oeste 0 -- -- 94
2019-11-15 06:00:00 1.7 0 Calma 10 Oeste 0 -- -- 93
2019-11-15 05:00:00 2.5 8 Oeste 10 Oeste 0 -- -- 93
2019-11-15 04:00:00 2.6 8 Oeste 10 Oeste 0 -- -- 92
2019-11-15 03:00:00 3.3 4 Oeste 7 Oeste 0 -- -- 90
2019-11-15 02:00:00 4.4 4 Oeste 12 Oeste 0 -- -- 86
2019-11-15 01:00:00 4.9 7 Oeste 14 Sudoeste 0 -- -- 85
2019-11-15 00:00:00 4.4 9 Oeste 13 Sudoeste 0 -- -- 88